Grand Island, New York
Current Conditions -  °F | °C
As of 8:53 AM on Saturday 20 Dec 2014 (Local Time) from KIAG Reporting Station
Broken Clouds Broken Clouds  
Wind Chill: 21°   Ceiling: 2000
Heat Index: 26°   Visibility: 9mi
Dew Point: 22°   Wind: 5mph
Humidity: 84%   Direction: 280°W
Pressure: 30.29"   Gusts: NA
Location:  43.02°N, 78.96°W
Report Text: KIAG 201353Z 28004KT 9SM BKN020 M03/M06 A3029 RMK AO2 SLP273 T10331056
Loading
Personal Weather Stations






























Interactive Weather Map New forecast layout! Learn more

10-Day Weather Forecast

Advertisements
Track Severe Weather on mobile